Time;durP1;ratioP1;P1;durP2;ratioP2;P2;SDS_P1;SDS_P2;PMS_P1;PMS_P2;Temp;Humidity;BMP_temperature;BMP_pressure;BME280_temperature;BME280_humidity;BME280_pressure;Samples;Min_cycle;Max_cycle;Signal;HPM_P1;HPM_P2
2021/12/03 00:04:22;;;;;;;2.67;1.83;;;;;;;21.19;46.69;95747.59;10473405;28;20045;-55
2021/12/03 00:09:42;;;;;;;5.43;2.00;;;;;;;21.18;46.62;95756.84;10457670;28;20059;-55
2021/12/03 00:15:02;;;;;;;3.72;1.88;;;;;;;21.17;46.62;95762.63;10462392;28;20074;-55
2021/12/03 00:20:23;;;;;;;2.53;1.88;;;;;;;21.14;46.65;95773.03;10482279;28;20044;-55
2021/12/03 00:25:43;;;;;;;4.00;1.70;;;;;;;21.14;46.58;95767.63;10458561;28;20188;-55
2021/12/03 00:31:04;;;;;;;2.40;1.55;;;;;;;21.11;46.61;95786.50;10470798;28;20499;-55
2021/12/03 00:36:25;;;;;;;4.35;1.67;;;;;;;21.09;46.53;95784.19;10462412;28;20045;-55
2021/12/03 00:41:48;;;;;;;3.25;1.52;;;;;;;21.08;46.31;95796.13;10492478;28;20048;-55
2021/12/03 00:47:07;;;;;;;3.05;1.65;;;;;;;21.05;46.44;95810.41;10473066;28;20048;-55
2021/12/03 00:52:27;;;;;;;3.35;1.67;;;;;;;21.04;46.33;95816.19;10455046;28;20107;-55
2021/12/03 00:57:47;;;;;;;2.83;1.60;;;;;;;21.01;46.20;95819.59;10476060;28;20040;-55
2021/12/03 01:03:06;;;;;;;2.92;1.42;;;;;;;20.99;46.23;95830.78;10454924;28;20663;-55
2021/12/03 01:08:25;;;;;;;2.22;1.70;;;;;;;20.98;46.32;95839.28;10452243;28;20053;-55
2021/12/03 01:13:46;;;;;;;2.28;1.48;;;;;;;20.97;46.31;95853.94;10450757;28;20068;-55
2021/12/03 01:19:05;;;;;;;2.97;1.65;;;;;;;20.93;46.20;95854.66;10474452;28;20094;-55
2021/12/03 01:24:25;;;;;;;2.00;1.40;;;;;;;20.91;46.13;95865.06;10473128;28;20064;-56
2021/12/03 01:29:45;;;;;;;2.67;1.52;;;;;;;20.89;46.18;95870.03;10464468;28;20053;-55
2021/12/03 01:35:05;;;;;;;2.30;1.50;;;;;;;20.89;46.06;95872.72;10465865;28;20110;-55
2021/12/03 01:40:28;;;;;;;3.65;1.77;;;;;;;20.86;45.94;95878.88;10471428;28;20057;-56
2021/12/03 01:45:48;;;;;;;2.47;1.67;;;;;;;20.84;45.95;95881.16;10466209;28;20094;-55
2021/12/03 01:51:07;;;;;;;1.98;1.50;;;;;;;20.83;45.75;95895.03;10466362;28;20048;-55
2021/12/03 01:56:27;;;;;;;2.25;1.33;;;;;;;20.81;45.85;95889.97;10458526;28;20055;-56
2021/12/03 02:01:47;;;;;;;1.88;1.25;;;;;;;20.79;45.87;95896.88;10458336;28;20056;-56
2021/12/03 02:07:07;;;;;;;2.15;1.35;;;;;;;20.77;45.70;95907.28;10496215;28;20047;-56
2021/12/03 02:12:27;;;;;;;1.52;1.40;;;;;;;20.76;45.64;95911.91;10471850;28;20057;-56
2021/12/03 02:17:47;;;;;;;2.30;1.33;;;;;;;20.74;45.26;95917.69;10451076;28;20056;-57
2021/12/03 02:23:07;;;;;;;1.85;1.30;;;;;;;20.71;45.69;95915.66;10474810;28;20099;-56
2021/12/03 02:28:31;;;;;;;2.95;1.27;;;;;;;20.69;45.74;95923.34;10453625;28;20045;-57
2021/12/03 02:33:52;;;;;;;2.05;1.35;;;;;;;20.67;45.33;95925.63;10457161;28;20511;-56
2021/12/03 02:39:12;;;;;;;3.08;1.25;;;;;;;20.67;45.39;95924.84;10484940;28;20649;-56
2021/12/03 02:44:32;;;;;;;1.92;1.25;;;;;;;20.64;45.37;95920.94;10460885;28;20045;-56
2021/12/03 02:49:51;;;;;;;3.30;1.50;;;;;;;20.63;45.37;95930.19;10472342;28;20064;-56
2021/12/03 02:55:11;;;;;;;1.80;1.40;;;;;;;20.61;45.23;95945.97;10494481;28;20070;-57
2021/12/03 03:00:31;;;;;;;2.53;1.35;;;;;;;20.58;45.07;95954.78;10492776;28;20032;-56
2021/12/03 03:05:57;;;;;;;1.40;1.00;;;;;;;20.58;45.08;95957.50;10482493;28;20423;-56
2021/12/03 03:11:17;;;;;;;1.33;1.00;;;;;;;20.55;45.15;95958.19;10479714;28;20048;-57
2021/12/03 03:16:37;;;;;;;2.22;1.25;;;;;;;20.53;45.06;95953.13;10496163;28;20076;-56
2021/12/03 03:21:56;;;;;;;1.77;1.30;;;;;;;20.50;44.97;95959.25;10467335;28;20061;-56
2021/12/03 03:27:16;;;;;;;1.52;1.20;;;;;;;20.50;45.15;95961.16;10477777;28;20053;-56
2021/12/03 03:32:36;;;;;;;1.23;1.10;;;;;;;20.49;45.06;95965.00;10476289;28;20048;-57
2021/12/03 03:37:56;;;;;;;1.50;1.10;;;;;;;20.46;45.01;95969.16;10471008;28;20044;-56
2021/12/03 03:43:17;;;;;;;1.58;0.95;;;;;;;20.44;45.03;95967.97;10488725;28;20048;-57
2021/12/03 03:48:36;;;;;;;1.48;0.90;;;;;;;20.43;44.95;95982.63;10465330;28;20059;-56
2021/12/03 03:53:55;;;;;;;2.28;1.20;;;;;;;20.41;44.92;95982.19;10478010;28;20052;-56
2021/12/03 03:59:17;;;;;;;1.83;1.20;;;;;;;20.38;44.93;95977.47;10487005;28;20106;-56
2021/12/03 04:04:37;;;;;;;1.23;1.10;;;;;;;20.37;44.79;95984.81;10473350;28;20714;-56
2021/12/03 04:09:56;;;;;;;1.20;0.95;;;;;;;20.35;44.92;95998.69;10482003;28;20056;-56
2021/12/03 04:15:16;;;;;;;0.88;0.80;;;;;;;20.33;44.81;96002.88;10481329;28;20056;-56
2021/12/03 04:20:36;;;;;;;1.38;0.90;;;;;;;20.32;44.88;96017.53;10466466;28;20048;-57
2021/12/03 04:25:56;;;;;;;2.10;1.15;;;;;;;20.29;44.66;96015.53;10469575;28;20056;-57
2021/12/03 04:31:15;;;;;;;1.88;1.10;;;;;;;20.28;44.73;96032.88;10470346;28;20106;-56
2021/12/03 04:36:35;;;;;;;1.48;1.00;;;;;;;20.27;44.93;96042.91;10468480;28;20052;-56
2021/12/03 04:41:54;;;;;;;1.08;0.90;;;;;;;20.24;44.67;96049.00;10480632;28;20041;-57
2021/12/03 04:47:13;;;;;;;1.40;0.95;;;;;;;20.23;44.46;96052.84;10470894;28;20045;-57
2021/12/03 04:52:33;;;;;;;1.20;0.90;;;;;;;20.21;44.70;96065.94;10470138;28;20079;-56
2021/12/03 04:57:53;;;;;;;1.40;0.85;;;;;;;20.19;44.80;96060.09;10481438;28;20051;-56
2021/12/03 05:03:13;;;;;;;1.02;0.90;;;;;;;20.18;44.60;96069.31;10479490;28;20050;-57
2021/12/03 05:08:32;;;;;;;1.05;0.90;;;;;;;20.15;44.60;96087.03;10481122;28;20045;-57
2021/12/03 05:13:52;;;;;;;1.13;0.80;;;;;;;20.14;44.58;96100.91;10480503;28;20056;-57
2021/12/03 05:19:12;;;;;;;1.00;0.90;;;;;;;20.12;44.65;96095.03;10469826;28;20052;-57
2021/12/03 05:24:31;;;;;;;1.50;0.80;;;;;;;20.11;44.50;96106.97;10447298;28;20053;-56
2021/12/03 05:29:51;;;;;;;0.90;0.75;;;;;;;20.09;44.45;96111.94;10448994;28;20065;-56
2021/12/03 05:35:11;;;;;;;1.48;1.05;;;;;;;20.06;44.57;96113.44;10454286;28;20045;-57
2021/12/03 05:40:31;;;;;;;1.88;0.90;;;;;;;20.06;44.73;96121.53;10475285;28;20471;-57
2021/12/03 05:45:50;;;;;;;1.42;0.98;;;;;;;20.03;44.92;96127.66;10470210;28;20385;-56
2021/12/03 05:51:10;;;;;;;1.48;0.90;;;;;;;20.01;44.77;96132.59;10458164;28;20465;-56
2021/12/03 05:56:30;;;;;;;1.40;0.90;;;;;;;19.99;44.93;96129.44;10487461;28;20047;-56
2021/12/03 06:01:50;;;;;;;2.40;1.10;;;;;;;19.99;44.94;96145.66;10478488;28;20489;-58
2021/12/03 06:07:09;;;;;;;1.10;0.80;;;;;;;19.98;45.01;96152.22;10471594;28;20052;-57
2021/12/03 06:12:29;;;;;;;1.13;0.80;;;;;;;19.97;45.05;96163.38;10470132;28;20067;-57
2021/12/03 06:17:48;;;;;;;1.38;0.85;;;;;;;19.95;45.18;96169.91;10481546;28;20040;-57
2021/12/03 06:23:08;;;;;;;0.98;0.90;;;;;;;19.93;44.94;96174.88;10462625;28;20049;-57
2021/12/03 06:28:29;;;;;;;0.70;0.70;;;;;;;19.92;44.99;96194.91;10472164;28;20060;-57
2021/12/03 06:33:50;;;;;;;1.35;0.98;;;;;;;19.89;45.03;96206.41;10462054;28;20361;-57
2021/12/03 06:39:10;;;;;;;1.30;0.88;;;;;;;19.88;45.00;96214.88;10477580;28;20049;-57
2021/12/03 06:44:30;;;;;;;1.00;0.88;;;;;;;19.86;44.96;96217.13;10466654;28;20045;-57
2021/12/03 06:49:49;;;;;;;0.77;0.77;;;;;;;19.86;45.08;96231.41;10471614;28;20095;-57
2021/12/03 06:55:12;;;;;;;1.00;0.82;;;;;;;19.85;44.79;96226.34;10470623;28;20044;-56
2021/12/03 07:00:31;;;;;;;0.80;0.70;;;;;;;19.84;45.10;96241.00;10455978;28;20607;-57
2021/12/03 07:05:51;;;;;;;1.08;0.82;;;;;;;19.85;45.06;96246.06;10458741;28;20122;-57
2021/12/03 07:11:11;;;;;;;1.77;0.70;;;;;;;19.86;44.92;96249.56;10476142;28;20052;-57
2021/12/03 07:16:31;;;;;;;0.73;0.70;;;;;;;19.87;44.87;96261.94;10465803;28;20377;-57
2021/12/03 07:21:51;;;;;;;0.90;0.70;;;;;;;19.90;45.00;96264.75;10465155;28;20053;-56
2021/12/03 07:27:10;;;;;;;0.85;0.80;;;;;;;19.93;44.98;96265.97;10449004;28;20041;-57
2021/12/03 07:32:30;;;;;;;0.80;0.80;;;;;;;19.94;45.08;96271.06;10477540;28;20049;-55
2021/12/03 07:37:49;;;;;;;1.88;0.68;;;;;;;19.98;45.14;96275.78;10474866;28;20645;-58
2021/12/03 07:43:09;;;;;;;1.05;0.80;;;;;;;20.01;45.27;96283.22;10462748;28;20558;-56
2021/12/03 07:48:29;;;;;;;1.88;0.80;;;;;;;20.03;45.04;96292.59;10484200;28;20438;-56
2021/12/03 07:53:48;;;;;;;0.93;0.82;;;;;;;20.07;45.30;96295.38;10483084;28;20679;-56
2021/12/03 07:59:08;;;;;;;1.35;0.80;;;;;;;20.11;45.26;96288.16;10457282;28;20065;-56
2021/12/03 08:04:27;;;;;;;1.88;0.80;;;;;;;20.15;45.15;96308.00;10467250;28;20040;-56
2021/12/03 08:09:46;;;;;;;2.20;0.70;;;;;;;20.20;45.25;96312.38;10462702;28;20064;-56
2021/12/03 08:15:07;;;;;;;0.70;0.70;;;;;;;20.24;45.10;96318.69;10474683;28;20040;-56
2021/12/03 08:20:26;;;;;;;0.80;0.80;;;;;;;20.26;44.97;96316.44;10471450;28;20052;-56
2021/12/03 08:25:45;;;;;;;0.68;0.65;;;;;;;20.31;45.18;96319.69;10475393;28;20052;-56
2021/12/03 08:31:05;;;;;;;0.90;0.63;;;;;;;20.37;45.00;96324.88;10477578;28;20049;-57
2021/12/03 08:36:24;;;;;;;1.27;0.63;;;;;;;20.41;45.32;96334.69;10478694;28;20045;-56
2021/12/03 08:41:44;;;;;;;1.98;0.63;;;;;;;20.46;45.49;96328.22;10475758;28;20075;-57
2021/12/03 08:47:06;;;;;;;0.73;0.70;;;;;;;20.51;45.77;96336.91;10470645;28;20044;-57
2021/12/03 08:57:45;;;;;;;2.13;0.88;;;;;;;20.61;46.18;96349.22;10480202;28;20486;-56
2021/12/03 09:03:06;;;;;;;0.88;0.77;;;;;;;20.66;46.11;96356.28;10469628;28;20052;-56
2021/12/03 09:08:25;;;;;;;0.60;0.60;;;;;;;20.68;46.17;96349.44;10470011;28;20051;-56
2021/12/03 09:13:46;;;;;;;3.53;0.73;;;;;;;20.73;46.00;96368.13;10484021;28;20048;-56
2021/12/03 09:19:13;;;;;;;1.15;0.60;;;;;;;20.77;45.89;96372.84;10479352;28;20056;-56
2021/12/03 09:24:37;;;;;;;4.38;1.50;;;;;;;20.80;45.73;96367.56;10478665;28;20053;-56
2021/12/03 09:29:57;;;;;;;4.28;1.05;;;;;;;20.83;45.73;96366.06;10463550;28;20057;-57
2021/12/03 09:35:17;;;;;;;4.68;1.23;;;;;;;20.85;45.63;96363.81;10476821;28;20048;-55
2021/12/03 09:40:39;;;;;;;2.80;0.93;;;;;;;20.88;45.57;96373.97;10461122;28;20052;-55
2021/12/03 09:46:16;;;;;;;1.27;0.88;;;;;;;20.90;45.58;96366.28;10466830;28;20049;-56
2021/12/03 09:57:41;;;;;;;3.20;1.05;;;;;;;20.91;45.24;96360.53;10445196;28;20049;-55
2021/12/03 10:20:04;;;;;;;6.70;1.35;;;;;;;20.91;44.27;96375.97;10483461;28;20057;-56
2021/12/03 10:53:35;;;;;;;8.15;2.20;;;;;;;20.41;29.98;96360.94;10461692;28;20052;-54
2021/12/03 10:59:20;;;;;;;6.57;2.10;;;;;;;20.44;36.71;96366.44;10484096;28;20064;-55
2021/12/03 11:44:48;;;;;;;3.70;1.92;;;;;;;20.74;36.94;96369.72;10474273;28;20056;-55
2021/12/03 13:25:50;;;;;;;8.13;1.60;;;;;;;20.40;37.89;96330.38;10471246;28;20052;-56
2021/12/03 14:55:30;;;;;;;2.63;1.10;;;;;;;20.16;39.92;96382.59;10510194;28;20041;-56
2021/12/03 15:01:00;;;;;;;2.53;1.10;;;;;;;20.08;38.32;96383.50;10474427;28;20049;-54
2021/12/03 15:33:57;;;;;;;2.33;1.08;;;;;;;20.08;40.95;96367.28;10488982;28;20048;-54
2021/12/03 15:39:34;;;;;;;1.92;0.93;;;;;;;20.09;41.09;96374.25;10480500;28;20041;-54
2021/12/03 16:51:52;;;;;;;7.28;3.20;;;;;;;20.42;41.59;96338.94;10450528;28;20315;-53
2021/12/03 16:57:14;;;;;;;6.05;2.85;;;;;;;20.46;41.64;96337.13;10453647;28;20072;-54
2021/12/03 17:02:42;;;;;;;4.43;2.83;;;;;;;20.51;41.54;96346.94;10451689;28;20053;-53
2021/12/03 17:13:57;;;;;;;4.40;2.40;;;;;;;20.57;41.57;96326.63;10448269;28;20041;-55
2021/12/03 17:52:51;;;;;;;7.72;2.30;;;;;;;20.80;42.25;96350.53;10456115;28;20048;-54
2021/12/03 18:59:16;;;;;;;3.67;1.90;;;;;;;20.84;42.92;96292.63;10460829;28;20048;-52
2021/12/03 19:04:48;;;;;;;3.35;1.80;;;;;;;20.83;42.87;96291.06;10472748;28;20601;-54
2021/12/03 19:10:19;;;;;;;7.05;2.90;;;;;;;20.83;42.96;96290.28;10474286;28;20037;-54
2021/12/03 19:15:41;;;;;;;3.75;1.80;;;;;;;20.82;42.90;96283.28;10476184;28;20526;-54
2021/12/03 19:21:06;;;;;;;2.88;2.05;;;;;;;20.81;43.22;96282.47;10485577;28;20132;-54
2021/12/03 19:26:31;;;;;;;3.25;1.92;;;;;;;20.81;43.06;96281.72;10454568;28;20045;-53
2021/12/03 19:31:51;;;;;;;3.67;1.73;;;;;;;20.81;43.02;96270.88;10486581;28;20049;-53
2021/12/03 19:37:11;;;;;;;4.10;2.00;;;;;;;20.81;43.09;96266.25;10503842;28;20050;-55
2021/12/03 19:42:41;;;;;;;2.60;1.83;;;;;;;20.81;43.15;96273.59;10491326;28;20501;-55
2021/12/03 19:48:08;;;;;;;4.32;1.55;;;;;;;20.82;43.34;96270.53;10474815;28;20052;-54
2021/12/03 19:53:28;;;;;;;3.05;1.70;;;;;;;20.80;43.61;96264.69;10470856;28;20518;-53
2021/12/03 19:58:48;;;;;;;4.53;1.70;;;;;;;20.80;43.68;96253.84;10456656;28;20110;-54
2021/12/03 20:04:09;;;;;;;3.33;1.70;;;;;;;20.79;43.81;96252.25;10453264;28;20052;-55
2021/12/03 20:09:38;;;;;;;4.72;2.10;;;;;;;20.77;43.80;96241.00;10452240;28;20495;-56
2021/12/03 20:14:58;;;;;;;4.40;1.98;;;;;;;20.77;44.05;96219.34;10454590;28;20052;-54
2021/12/03 20:20:18;;;;;;;4.07;2.00;;;;;;;20.77;44.20;96213.94;10459320;28;20056;-57
2021/12/03 20:31:21;;;;;;;3.60;1.88;;;;;;;20.76;44.42;96211.56;10455731;28;20424;-55
2021/12/03 20:42:08;;;;;;;2.70;1.60;;;;;;;20.73;44.50;96173.22;10457896;28;20109;-55
2021/12/03 20:53:03;;;;;;;2.28;1.70;;;;;;;20.71;44.53;96167.38;10449593;28;20033;-56
2021/12/03 21:09:44;;;;;;;4.38;1.92;;;;;;;20.69;44.60;96149.91;10458912;28;20041;-57
2021/12/03 21:15:08;;;;;;;3.90;1.75;;;;;;;20.67;44.51;96142.13;10461351;28;20116;-57
2021/12/03 21:20:34;;;;;;;4.85;1.85;;;;;;;20.66;44.73;96135.16;10448541;28;20055;-55
2021/12/03 21:25:56;;;;;;;8.10;2.83;;;;;;;20.66;44.83;96137.88;10473166;28;20056;-55
2021/12/03 21:42:34;;;;;;;5.15;2.40;;;;;;;20.62;44.69;96115.34;10450240;28;20053;-55
2021/12/03 21:47:53;;;;;;;2.88;1.80;;;;;;;20.61;44.55;96104.88;10446510;28;20052;-54
2021/12/03 21:53:13;;;;;;;49.42;12.27;;;;;;;20.59;44.70;96107.91;10453643;28;20064;-55
2021/12/03 21:58:33;;;;;;;13.82;4.55;;;;;;;20.59;45.46;96098.97;10455746;28;20145;-55
2021/12/03 22:03:52;;;;;;;14.13;4.82;;;;;;;20.58;45.66;96100.09;10449581;28;20418;-54
2021/12/03 22:09:14;;;;;;;13.48;4.60;;;;;;;20.57;45.81;96101.25;10445175;28;20530;-55
2021/12/03 22:14:33;;;;;;;12.60;4.38;;;;;;;20.55;45.76;96096.97;10448511;28;20049;-54
2021/12/03 22:19:53;;;;;;;13.48;4.68;;;;;;;20.54;45.85;96081.06;10445085;28;20063;-55
2021/12/03 22:25:12;;;;;;;13.82;4.85;;;;;;;20.54;45.85;96075.66;10447370;28;20057;-56
2021/12/03 22:30:32;;;;;;;15.25;5.07;;;;;;;20.53;45.83;96071.38;10444989;28;20045;-55
2021/12/03 22:35:52;;;;;;;14.05;4.72;;;;;;;20.51;45.80;96062.84;10444160;28;20052;-55
2021/12/03 22:41:14;;;;;;;16.02;5.38;;;;;;;20.50;45.94;96055.84;10454580;28;20641;-56
2021/12/03 22:46:42;;;;;;;13.40;4.95;;;;;;;20.48;46.02;96047.28;10464289;28;20095;-55
2021/12/03 22:52:10;;;;;;;;;;;;;;;20.48;46.48;96041.88;10469099;28;20170;-54
2021/12/03 22:57:29;;;;;;;14.50;4.85;;;;;;;20.47;45.96;96026.78;10462172;28;19920;-55
2021/12/03 23:02:48;;;;;;;16.58;5.30;;;;;;;20.44;46.23;96022.06;10478989;28;20044;-54
2021/12/03 23:08:09;;;;;;;13.75;4.70;;;;;;;20.42;46.11;96006.19;10468934;28;20714;-53
2021/12/03 23:13:29;;;;;;;15.38;4.88;;;;;;;20.41;46.22;95998.44;10457938;28;20041;-55
2021/12/03 23:18:49;;;;;;;14.32;4.68;;;;;;;20.41;46.16;95988.38;10454721;28;20056;-55
2021/12/03 23:24:08;;;;;;;10.95;4.30;;;;;;;20.40;46.07;95986.03;10487609;28;20067;-56
2021/12/03 23:29:28;;;;;;;11.00;4.18;;;;;;;20.39;45.90;95987.94;10492176;28;20048;-56
2021/12/03 23:34:49;;;;;;;8.20;3.58;;;;;;;20.38;45.53;95991.00;10467378;28;20447;-56
2021/12/03 23:40:09;;;;;;;9.05;3.50;;;;;;;20.35;45.64;95978.97;10484928;28;20074;-56
2021/12/03 23:45:29;;;;;;;7.78;3.20;;;;;;;20.34;45.61;95978.16;10481542;28;20065;-56
2021/12/03 23:50:48;;;;;;;7.70;3.03;;;;;;;20.32;45.54;95979.66;10501813;28;20491;-56
2021/12/03 23:56:08;;;;;;;8.05;2.72;;;;;;;20.30;45.37;95965.69;10489336;28;20049;-56
